sensor_id;sensor_type;location;lat;lon;timestamp;P1;durP1;ratioP1;P2;durP2;ratioP2
45318;SDS011;31057;48.498;32.260;2022-09-16T00:00:42;28.70;;;25.95;;
45318;SDS011;31057;48.498;32.260;2022-09-16T00:03:45;30.30;;;27.63;;
45318;SDS011;31057;48.498;32.260;2022-09-16T00:06:47;30.83;;;27.85;;
45318;SDS011;31057;48.498;32.260;2022-09-16T00:09:49;31.17;;;28.05;;
45318;SDS011;31057;48.498;32.260;2022-09-16T00:12:51;31.23;;;28.33;;
45318;SDS011;31057;48.498;32.260;2022-09-16T00:15:53;32.70;;;29.48;;
45318;SDS011;31057;48.498;32.260;2022-09-16T00:18:56;31.95;;;28.95;;
45318;SDS011;31057;48.498;32.260;2022-09-16T00:22:00;35.05;;;31.83;;
45318;SDS011;31057;48.498;32.260;2022-09-16T00:25:02;36.65;;;32.95;;
45318;SDS011;31057;48.498;32.260;2022-09-16T00:28:04;36.40;;;33.05;;
45318;SDS011;31057;48.498;32.260;2022-09-16T00:31:06;36.13;;;32.85;;
45318;SDS011;31057;48.498;32.260;2022-09-16T00:34:08;36.33;;;32.65;;
45318;SDS011;31057;48.498;32.260;2022-09-16T00:37:09;36.30;;;32.83;;
45318;SDS011;31057;48.498;32.260;2022-09-16T00:40:11;34.97;;;31.65;;
45318;SDS011;31057;48.498;32.260;2022-09-16T00:43:14;36.30;;;32.80;;
45318;SDS011;31057;48.498;32.260;2022-09-16T00:46:19;37.42;;;33.85;;
45318;SDS011;31057;48.498;32.260;2022-09-16T00:49:28;36.20;;;32.90;;
45318;SDS011;31057;48.498;32.260;2022-09-16T00:52:31;37.05;;;33.58;;
45318;SDS011;31057;48.498;32.260;2022-09-16T00:55:34;38.30;;;34.42;;
45318;SDS011;31057;48.498;32.260;2022-09-16T00:58:49;38.25;;;34.63;;
45318;SDS011;31057;48.498;32.260;2022-09-16T01:02:04;36.80;;;33.05;;
45318;SDS011;31057;48.498;32.260;2022-09-16T01:05:11;39.78;;;35.83;;
45318;SDS011;31057;48.498;32.260;2022-09-16T01:08:19;36.92;;;33.42;;
45318;SDS011;31057;48.498;32.260;2022-09-16T01:11:21;37.33;;;33.80;;
45318;SDS011;31057;48.498;32.260;2022-09-16T01:14:23;36.42;;;33.20;;
45318;SDS011;31057;48.498;32.260;2022-09-16T01:21:02;39.25;;;35.33;;
45318;SDS011;31057;48.498;32.260;2022-09-16T01:24:13;38.60;;;34.85;;
45318;SDS011;31057;48.498;32.260;2022-09-16T01:31:00;38.42;;;34.67;;
45318;SDS011;31057;48.498;32.260;2022-09-16T01:40:32;37.35;;;33.80;;
45318;SDS011;31057;48.498;32.260;2022-09-16T01:47:14;38.53;;;35.05;;
45318;SDS011;31057;48.498;32.260;2022-09-16T01:50:41;40.50;;;36.42;;
45318;SDS011;31057;48.498;32.260;2022-09-16T01:53:49;36.92;;;33.30;;
45318;SDS011;31057;48.498;32.260;2022-09-16T02:00:08;38.45;;;34.78;;
45318;SDS011;31057;48.498;32.260;2022-09-16T02:03:13;38.90;;;35.22;;
45318;SDS011;31057;48.498;32.260;2022-09-16T02:06:23;39.05;;;35.38;;
45318;SDS011;31057;48.498;32.260;2022-09-16T02:09:30;41.17;;;37.10;;
45318;SDS011;31057;48.498;32.260;2022-09-16T02:12:36;42.08;;;37.83;;
45318;SDS011;31057;48.498;32.260;2022-09-16T02:15:41;41.17;;;37.28;;
45318;SDS011;31057;48.498;32.260;2022-09-16T02:18:48;43.03;;;38.92;;
45318;SDS011;31057;48.498;32.260;2022-09-16T02:21:54;42.13;;;38.22;;
45318;SDS011;31057;48.498;32.260;2022-09-16T02:24:59;42.85;;;38.95;;
45318;SDS011;31057;48.498;32.260;2022-09-16T02:28:04;40.20;;;36.58;;
45318;SDS011;31057;48.498;32.260;2022-09-16T02:31:13;42.90;;;39.08;;
45318;SDS011;31057;48.498;32.260;2022-09-16T02:34:18;42.03;;;38.17;;
45318;SDS011;31057;48.498;32.260;2022-09-16T02:37:25;41.47;;;37.67;;
45318;SDS011;31057;48.498;32.260;2022-09-16T02:40:56;42.88;;;39.10;;
45318;SDS011;31057;48.498;32.260;2022-09-16T02:44:00;44.33;;;39.60;;
45318;SDS011;31057;48.498;32.260;2022-09-16T02:50:28;42.33;;;38.40;;
45318;SDS011;31057;48.498;32.260;2022-09-16T02:56:59;39.38;;;35.65;;
45318;SDS011;31057;48.498;32.260;2022-09-16T03:00:01;39.50;;;35.65;;
45318;SDS011;31057;48.498;32.260;2022-09-16T03:03:04;41.42;;;37.90;;
45318;SDS011;31057;48.498;32.260;2022-09-16T03:09:18;43.53;;;39.28;;
45318;SDS011;31057;48.498;32.260;2022-09-16T03:12:29;44.53;;;40.38;;
45318;SDS011;31057;48.498;32.260;2022-09-16T03:19:23;43.88;;;40.00;;
45318;SDS011;31057;48.498;32.260;2022-09-16T03:22:50;44.28;;;40.20;;
45318;SDS011;31057;48.498;32.260;2022-09-16T03:26:14;42.35;;;38.20;;
45318;SDS011;31057;48.498;32.260;2022-09-16T03:32:42;42.78;;;38.88;;
45318;SDS011;31057;48.498;32.260;2022-09-16T03:35:54;44.75;;;40.55;;
45318;SDS011;31057;48.498;32.260;2022-09-16T03:39:03;42.03;;;38.03;;
45318;SDS011;31057;48.498;32.260;2022-09-16T03:42:06;44.63;;;40.47;;
45318;SDS011;31057;48.498;32.260;2022-09-16T03:45:16;43.65;;;39.67;;
45318;SDS011;31057;48.498;32.260;2022-09-16T03:48:20;46.75;;;42.42;;
45318;SDS011;31057;48.498;32.260;2022-09-16T03:51:22;42.47;;;38.22;;
45318;SDS011;31057;48.498;32.260;2022-09-16T03:54:27;43.17;;;39.33;;
45318;SDS011;31057;48.498;32.260;2022-09-16T03:57:29;45.03;;;40.72;;
45318;SDS011;31057;48.498;32.260;2022-09-16T04:00:32;44.67;;;40.58;;
45318;SDS011;31057;48.498;32.260;2022-09-16T04:03:34;44.72;;;40.60;;
45318;SDS011;31057;48.498;32.260;2022-09-16T04:06:37;44.90;;;40.45;;
45318;SDS011;31057;48.498;32.260;2022-09-16T04:09:39;43.30;;;39.53;;
45318;SDS011;31057;48.498;32.260;2022-09-16T04:12:45;45.10;;;41.08;;
45318;SDS011;31057;48.498;32.260;2022-09-16T04:15:47;45.53;;;41.22;;
45318;SDS011;31057;48.498;32.260;2022-09-16T04:18:49;45.13;;;41.22;;
45318;SDS011;31057;48.498;32.260;2022-09-16T04:21:51;43.47;;;39.58;;
45318;SDS011;31057;48.498;32.260;2022-09-16T04:24:53;45.08;;;40.33;;
45318;SDS011;31057;48.498;32.260;2022-09-16T04:27:55;44.03;;;39.97;;
45318;SDS011;31057;48.498;32.260;2022-09-16T04:31:01;43.60;;;39.70;;
45318;SDS011;31057;48.498;32.260;2022-09-16T04:34:04;43.10;;;38.95;;
45318;SDS011;31057;48.498;32.260;2022-09-16T04:37:06;44.05;;;40.10;;
45318;SDS011;31057;48.498;32.260;2022-09-16T04:40:08;45.35;;;41.30;;
45318;SDS011;31057;48.498;32.260;2022-09-16T04:43:10;42.42;;;38.38;;
45318;SDS011;31057;48.498;32.260;2022-09-16T04:46:13;40.53;;;36.92;;
45318;SDS011;31057;48.498;32.260;2022-09-16T04:49:15;75.43;;;46.80;;
45318;SDS011;31057;48.498;32.260;2022-09-16T04:52:17;55.10;;;43.80;;
45318;SDS011;31057;48.498;32.260;2022-09-16T04:55:19;50.17;;;42.63;;
45318;SDS011;31057;48.498;32.260;2022-09-16T04:58:24;56.45;;;45.38;;
45318;SDS011;31057;48.498;32.260;2022-09-16T05:01:27;62.97;;;45.50;;
45318;SDS011;31057;48.498;32.260;2022-09-16T05:04:31;53.22;;;44.05;;
45318;SDS011;31057;48.498;32.260;2022-09-16T05:07:32;62.05;;;47.05;;
45318;SDS011;31057;48.498;32.260;2022-09-16T05:10:34;61.22;;;45.53;;
45318;SDS011;31057;48.498;32.260;2022-09-16T05:13:36;48.90;;;43.75;;
45318;SDS011;31057;48.498;32.260;2022-09-16T05:16:39;46.33;;;41.95;;
45318;SDS011;31057;48.498;32.260;2022-09-16T05:19:41;46.63;;;42.33;;
45318;SDS011;31057;48.498;32.260;2022-09-16T05:22:43;46.25;;;42.15;;
45318;SDS011;31057;48.498;32.260;2022-09-16T05:25:45;47.28;;;42.78;;
45318;SDS011;31057;48.498;32.260;2022-09-16T05:28:47;46.65;;;42.38;;
45318;SDS011;31057;48.498;32.260;2022-09-16T05:31:51;47.63;;;43.08;;
45318;SDS011;31057;48.498;32.260;2022-09-16T05:34:52;47.47;;;43.05;;
45318;SDS011;31057;48.498;32.260;2022-09-16T05:37:55;52.08;;;47.25;;
45318;SDS011;31057;48.498;32.260;2022-09-16T05:40:57;50.45;;;45.67;;
45318;SDS011;31057;48.498;32.260;2022-09-16T05:44:00;51.47;;;46.35;;
45318;SDS011;31057;48.498;32.260;2022-09-16T05:47:02;48.03;;;43.67;;
45318;SDS011;31057;48.498;32.260;2022-09-16T05:50:05;49.95;;;45.40;;
45318;SDS011;31057;48.498;32.260;2022-09-16T05:53:07;50.13;;;45.00;;
45318;SDS011;31057;48.498;32.260;2022-09-16T05:56:10;52.15;;;47.05;;
45318;SDS011;31057;48.498;32.260;2022-09-16T05:59:16;48.30;;;43.47;;
45318;SDS011;31057;48.498;32.260;2022-09-16T06:02:18;49.88;;;44.88;;
45318;SDS011;31057;48.498;32.260;2022-09-16T06:05:20;47.00;;;42.75;;
45318;SDS011;31057;48.498;32.260;2022-09-16T06:08:22;47.55;;;42.90;;
45318;SDS011;31057;48.498;32.260;2022-09-16T06:11:24;47.65;;;43.05;;
45318;SDS011;31057;48.498;32.260;2022-09-16T06:14:27;45.33;;;41.38;;
45318;SDS011;31057;48.498;32.260;2022-09-16T06:17:29;46.97;;;42.78;;
45318;SDS011;31057;48.498;32.260;2022-09-16T06:20:31;45.35;;;41.35;;
45318;SDS011;31057;48.498;32.260;2022-09-16T06:23:33;49.60;;;44.85;;
45318;SDS011;31057;48.498;32.260;2022-09-16T06:26:37;48.97;;;44.50;;
45318;SDS011;31057;48.498;32.260;2022-09-16T06:29:40;47.40;;;43.35;;
45318;SDS011;31057;48.498;32.260;2022-09-16T06:32:42;48.33;;;44.22;;
45318;SDS011;31057;48.498;32.260;2022-09-16T06:35:44;50.45;;;46.15;;
45318;SDS011;31057;48.498;32.260;2022-09-16T06:38:46;48.95;;;44.15;;
45318;SDS011;31057;48.498;32.260;2022-09-16T06:41:49;47.90;;;43.30;;
45318;SDS011;31057;48.498;32.260;2022-09-16T06:44:51;44.00;;;40.25;;
45318;SDS011;31057;48.498;32.260;2022-09-16T06:47:57;45.38;;;41.38;;
45318;SDS011;31057;48.498;32.260;2022-09-16T06:51:04;46.38;;;42.38;;
45318;SDS011;31057;48.498;32.260;2022-09-16T06:54:16;46.70;;;42.38;;
45318;SDS011;31057;48.498;32.260;2022-09-16T06:57:18;49.33;;;44.95;;
45318;SDS011;31057;48.498;32.260;2022-09-16T07:00:23;51.75;;;47.13;;
45318;SDS011;31057;48.498;32.260;2022-09-16T07:03:25;47.10;;;43.05;;
45318;SDS011;31057;48.498;32.260;2022-09-16T07:06:27;43.65;;;39.90;;
45318;SDS011;31057;48.498;32.260;2022-09-16T07:09:49;41.72;;;37.78;;
45318;SDS011;31057;48.498;32.260;2022-09-16T07:12:51;39.03;;;35.55;;
45318;SDS011;31057;48.498;32.260;2022-09-16T07:15:53;40.30;;;36.70;;
45318;SDS011;31057;48.498;32.260;2022-09-16T07:19:13;42.08;;;38.28;;
45318;SDS011;31057;48.498;32.260;2022-09-16T07:22:15;39.88;;;36.55;;
45318;SDS011;31057;48.498;32.260;2022-09-16T07:25:17;40.13;;;36.67;;
45318;SDS011;31057;48.498;32.260;2022-09-16T07:28:19;37.30;;;34.28;;
45318;SDS011;31057;48.498;32.260;2022-09-16T07:31:22;36.88;;;33.97;;
45318;SDS011;31057;48.498;32.260;2022-09-16T07:34:25;36.88;;;33.97;;
45318;SDS011;31057;48.498;32.260;2022-09-16T07:37:27;37.28;;;33.97;;
45318;SDS011;31057;48.498;32.260;2022-09-16T07:40:29;35.72;;;32.58;;
45318;SDS011;31057;48.498;32.260;2022-09-16T07:43:31;33.15;;;30.30;;
45318;SDS011;31057;48.498;32.260;2022-09-16T07:46:34;35.60;;;32.58;;
45318;SDS011;31057;48.498;32.260;2022-09-16T07:49:36;36.08;;;32.85;;
45318;SDS011;31057;48.498;32.260;2022-09-16T07:52:38;33.97;;;31.00;;
45318;SDS011;31057;48.498;32.260;2022-09-16T07:55:40;35.28;;;32.30;;
45318;SDS011;31057;48.498;32.260;2022-09-16T07:58:42;36.05;;;32.85;;
45318;SDS011;31057;48.498;32.260;2022-09-16T08:01:46;35.28;;;31.80;;
45318;SDS011;31057;48.498;32.260;2022-09-16T08:04:49;36.70;;;33.58;;
45318;SDS011;31057;48.498;32.260;2022-09-16T08:07:51;38.75;;;35.40;;
45318;SDS011;31057;48.498;32.260;2022-09-16T08:10:53;34.28;;;31.30;;
45318;SDS011;31057;48.498;32.260;2022-09-16T08:13:57;31.52;;;28.80;;
45318;SDS011;31057;48.498;32.260;2022-09-16T08:17:00;31.50;;;28.60;;
45318;SDS011;31057;48.498;32.260;2022-09-16T08:20:03;30.20;;;27.75;;
45318;SDS011;31057;48.498;32.260;2022-09-16T08:23:07;40.78;;;36.92;;
45318;SDS011;31057;48.498;32.260;2022-09-16T08:26:09;49.05;;;44.70;;
45318;SDS011;31057;48.498;32.260;2022-09-16T08:29:12;41.97;;;38.30;;
45318;SDS011;31057;48.498;32.260;2022-09-16T08:32:14;43.05;;;39.35;;
45318;SDS011;31057;48.498;32.260;2022-09-16T08:35:16;43.60;;;39.80;;
45318;SDS011;31057;48.498;32.260;2022-09-16T08:38:18;33.13;;;30.20;;
45318;SDS011;31057;48.498;32.260;2022-09-16T08:44:48;32.22;;;29.25;;
45318;SDS011;31057;48.498;32.260;2022-09-16T08:51:08;33.28;;;30.38;;
45318;SDS011;31057;48.498;32.260;2022-09-16T08:54:26;32.38;;;29.38;;
45318;SDS011;31057;48.498;32.260;2022-09-16T09:00:45;29.75;;;27.15;;
45318;SDS011;31057;48.498;32.260;2022-09-16T09:03:50;26.42;;;24.23;;
45318;SDS011;31057;48.498;32.260;2022-09-16T09:20:21;22.33;;;20.42;;
45318;SDS011;31057;48.498;32.260;2022-09-16T09:26:51;29.77;;;27.08;;
45318;SDS011;31057;48.498;32.260;2022-09-16T09:43:52;28.30;;;25.77;;
45318;SDS011;31057;48.498;32.260;2022-09-16T09:47:19;31.60;;;28.50;;
45318;SDS011;31057;48.498;32.260;2022-09-16T09:50:39;32.67;;;29.42;;
45318;SDS011;31057;48.498;32.260;2022-09-16T09:53:43;30.92;;;28.10;;
45318;SDS011;31057;48.498;32.260;2022-09-16T09:56:47;30.98;;;28.17;;
45318;SDS011;31057;48.498;32.260;2022-09-16T10:00:01;29.30;;;26.50;;
45318;SDS011;31057;48.498;32.260;2022-09-16T10:03:14;29.10;;;26.15;;
45318;SDS011;31057;48.498;32.260;2022-09-16T10:06:19;28.70;;;26.20;;
45318;SDS011;31057;48.498;32.260;2022-09-16T10:09:26;26.40;;;23.80;;
45318;SDS011;31057;48.498;32.260;2022-09-16T10:12:33;24.97;;;22.70;;
45318;SDS011;31057;48.498;32.260;2022-09-16T10:15:36;24.67;;;22.38;;
45318;SDS011;31057;48.498;32.260;2022-09-16T10:18:38;22.50;;;20.37;;
45318;SDS011;31057;48.498;32.260;2022-09-16T10:21:41;21.42;;;19.63;;
45318;SDS011;31057;48.498;32.260;2022-09-16T10:24:52;21.23;;;19.42;;
45318;SDS011;31057;48.498;32.260;2022-09-16T10:55:30;12.75;;;11.65;;
45318;SDS011;31057;48.498;32.260;2022-09-16T10:58:35;12.07;;;11.07;;
45318;SDS011;31057;48.498;32.260;2022-09-16T11:08:12;10.35;;;9.40;;
45318;SDS011;31057;48.498;32.260;2022-09-16T11:21:30;10.70;;;9.18;;
45318;SDS011;31057;48.498;32.260;2022-09-16T11:32:18;6.55;;;6.05;;
45318;SDS011;31057;48.498;32.260;2022-09-16T11:45:50;3.97;;;3.67;;
45318;SDS011;31057;48.498;32.260;2022-09-16T11:59:44;12.68;;;11.45;;
45318;SDS011;31057;48.498;32.260;2022-09-16T12:03:01;8.20;;;7.47;;
45318;SDS011;31057;48.498;32.260;2022-09-16T12:06:14;7.80;;;7.10;;
45318;SDS011;31057;48.498;32.260;2022-09-16T12:09:25;7.28;;;6.68;;
45318;SDS011;31057;48.498;32.260;2022-09-16T12:12:36;7.45;;;6.80;;
45318;SDS011;31057;48.498;32.260;2022-09-16T12:18:50;7.93;;;7.25;;
45318;SDS011;31057;48.498;32.260;2022-09-16T12:22:01;6.32;;;5.80;;
45318;SDS011;31057;48.498;32.260;2022-09-16T12:28:23;6.25;;;5.53;;
45318;SDS011;31057;48.498;32.260;2022-09-16T12:31:36;4.95;;;4.55;;
45318;SDS011;31057;48.498;32.260;2022-09-16T12:34:47;5.45;;;4.57;;
45318;SDS011;31057;48.498;32.260;2022-09-16T12:37:56;9.23;;;4.60;;
45318;SDS011;31057;48.498;32.260;2022-09-16T12:44:37;5.07;;;4.50;;
45318;SDS011;31057;48.498;32.260;2022-09-16T13:01:40;8.40;;;7.70;;
45318;SDS011;31057;48.498;32.260;2022-09-16T13:04:46;6.47;;;5.88;;
45318;SDS011;31057;48.498;32.260;2022-09-16T13:07:53;5.68;;;5.15;;
45318;SDS011;31057;48.498;32.260;2022-09-16T13:10:59;3.65;;;3.35;;
45318;SDS011;31057;48.498;32.260;2022-09-16T13:14:25;4.20;;;3.80;;
45318;SDS011;31057;48.498;32.260;2022-09-16T13:24:38;6.60;;;6.00;;
45318;SDS011;31057;48.498;32.260;2022-09-16T13:27:56;4.20;;;3.70;;
45318;SDS011;31057;48.498;32.260;2022-09-16T13:34:18;7.63;;;5.10;;
45318;SDS011;31057;48.498;32.260;2022-09-16T13:37:25;5.78;;;4.90;;
45318;SDS011;31057;48.498;32.260;2022-09-16T13:40:28;5.82;;;3.58;;
45318;SDS011;31057;48.498;32.260;2022-09-16T13:43:32;5.90;;;3.75;;
45318;SDS011;31057;48.498;32.260;2022-09-16T13:46:50;5.35;;;4.68;;
45318;SDS011;31057;48.498;32.260;2022-09-16T13:49:54;4.20;;;2.90;;
45318;SDS011;31057;48.498;32.260;2022-09-16T13:53:07;2.92;;;2.63;;
45318;SDS011;31057;48.498;32.260;2022-09-16T14:13:20;3.60;;;3.22;;
45318;SDS011;31057;48.498;32.260;2022-09-16T14:16:24;9.30;;;4.43;;
45318;SDS011;31057;48.498;32.260;2022-09-16T14:19:32;2.83;;;2.42;;
45318;SDS011;31057;48.498;32.260;2022-09-16T14:22:37;3.70;;;2.90;;
45318;SDS011;31057;48.498;32.260;2022-09-16T14:25:39;4.13;;;2.85;;
45318;SDS011;31057;48.498;32.260;2022-09-16T14:28:41;3.58;;;3.10;;
45318;SDS011;31057;48.498;32.260;2022-09-16T14:31:43;3.67;;;3.13;;
45318;SDS011;31057;48.498;32.260;2022-09-16T14:34:45;3.67;;;3.10;;
45318;SDS011;31057;48.498;32.260;2022-09-16T14:37:54;3.45;;;3.10;;
45318;SDS011;31057;48.498;32.260;2022-09-16T14:41:04;3.67;;;2.80;;
45318;SDS011;31057;48.498;32.260;2022-09-16T14:47:29;5.10;;;2.40;;
45318;SDS011;31057;48.498;32.260;2022-09-16T14:50:52;4.05;;;2.50;;
45318;SDS011;31057;48.498;32.260;2022-09-16T14:53:55;4.13;;;3.00;;
45318;SDS011;31057;48.498;32.260;2022-09-16T14:57:22;3.40;;;2.80;;
45318;SDS011;31057;48.498;32.260;2022-09-16T15:00:29;3.38;;;2.92;;
45318;SDS011;31057;48.498;32.260;2022-09-16T15:06:47;6.18;;;4.05;;
45318;SDS011;31057;48.498;32.260;2022-09-16T15:09:57;7.05;;;4.20;;
45318;SDS011;31057;48.498;32.260;2022-09-16T15:13:08;5.03;;;3.72;;
45318;SDS011;31057;48.498;32.260;2022-09-16T15:16:14;6.05;;;3.20;;
45318;SDS011;31057;48.498;32.260;2022-09-16T15:19:20;5.43;;;4.47;;
45318;SDS011;31057;48.498;32.260;2022-09-16T15:22:25;5.60;;;5.10;;
45318;SDS011;31057;48.498;32.260;2022-09-16T15:25:29;7.22;;;5.25;;
45318;SDS011;31057;48.498;32.260;2022-09-16T15:28:47;5.63;;;4.35;;
45318;SDS011;31057;48.498;32.260;2022-09-16T15:31:52;5.82;;;4.50;;
45318;SDS011;31057;48.498;32.260;2022-09-16T15:38:26;6.95;;;6.22;;
45318;SDS011;31057;48.498;32.260;2022-09-16T15:41:29;9.90;;;8.68;;
45318;SDS011;31057;48.498;32.260;2022-09-16T15:44:31;12.90;;;10.52;;
45318;SDS011;31057;48.498;32.260;2022-09-16T15:47:38;13.23;;;11.18;;
45318;SDS011;31057;48.498;32.260;2022-09-16T15:50:54;13.48;;;12.07;;
45318;SDS011;31057;48.498;32.260;2022-09-16T15:54:35;13.20;;;11.77;;
45318;SDS011;31057;48.498;32.260;2022-09-16T15:57:34;13.15;;;11.95;;
45318;SDS011;31057;48.498;32.260;2022-09-16T16:04:06;18.00;;;14.90;;
45318;SDS011;31057;48.498;32.260;2022-09-16T16:07:10;14.95;;;13.40;;
45318;SDS011;31057;48.498;32.260;2022-09-16T16:10:33;15.40;;;13.95;;
45318;SDS011;31057;48.498;32.260;2022-09-16T16:13:36;15.40;;;13.82;;
45318;SDS011;31057;48.498;32.260;2022-09-16T16:16:39;14.32;;;13.02;;
45318;SDS011;31057;48.498;32.260;2022-09-16T16:20:01;16.55;;;14.15;;
45318;SDS011;31057;48.498;32.260;2022-09-16T16:23:03;12.80;;;11.27;;
45318;SDS011;31057;48.498;32.260;2022-09-16T16:26:06;13.55;;;10.65;;
45318;SDS011;31057;48.498;32.260;2022-09-16T16:29:09;12.68;;;8.93;;
45318;SDS011;31057;48.498;32.260;2022-09-16T16:32:12;10.70;;;9.45;;
45318;SDS011;31057;48.498;32.260;2022-09-16T16:35:15;10.73;;;9.10;;
45318;SDS011;31057;48.498;32.260;2022-09-16T16:38:17;9.27;;;7.93;;
45318;SDS011;31057;48.498;32.260;2022-09-16T16:41:20;9.55;;;7.97;;
45318;SDS011;31057;48.498;32.260;2022-09-16T16:44:23;11.00;;;7.55;;
45318;SDS011;31057;48.498;32.260;2022-09-16T16:47:25;12.63;;;7.25;;
45318;SDS011;31057;48.498;32.260;2022-09-16T16:50:27;11.07;;;7.40;;
45318;SDS011;31057;48.498;32.260;2022-09-16T16:53:29;10.82;;;8.50;;
45318;SDS011;31057;48.498;32.260;2022-09-16T16:56:32;12.20;;;10.77;;
45318;SDS011;31057;48.498;32.260;2022-09-16T16:59:34;11.63;;;7.60;;
45318;SDS011;31057;48.498;32.260;2022-09-16T17:02:36;12.23;;;8.70;;
45318;SDS011;31057;48.498;32.260;2022-09-16T17:05:38;13.65;;;9.05;;
45318;SDS011;31057;48.498;32.260;2022-09-16T17:08:40;11.05;;;8.68;;
45318;SDS011;31057;48.498;32.260;2022-09-16T17:11:58;10.60;;;9.23;;
45318;SDS011;31057;48.498;32.260;2022-09-16T17:15:01;11.45;;;10.30;;
45318;SDS011;31057;48.498;32.260;2022-09-16T17:18:03;12.90;;;10.23;;
45318;SDS011;31057;48.498;32.260;2022-09-16T17:21:09;15.45;;;10.13;;
45318;SDS011;31057;48.498;32.260;2022-09-16T17:24:16;12.30;;;11.02;;
45318;SDS011;31057;48.498;32.260;2022-09-16T17:27:18;14.67;;;12.23;;
45318;SDS011;31057;48.498;32.260;2022-09-16T17:30:22;17.60;;;13.50;;
45318;SDS011;31057;48.498;32.260;2022-09-16T17:33:23;18.85;;;14.88;;
45318;SDS011;31057;48.498;32.260;2022-09-16T17:36:26;18.70;;;15.67;;
45318;SDS011;31057;48.498;32.260;2022-09-16T17:39:29;23.33;;;19.55;;
45318;SDS011;31057;48.498;32.260;2022-09-16T17:42:31;16.92;;;14.48;;
45318;SDS011;31057;48.498;32.260;2022-09-16T17:45:33;14.77;;;13.38;;
45318;SDS011;31057;48.498;32.260;2022-09-16T17:48:35;22.83;;;13.80;;
45318;SDS011;31057;48.498;32.260;2022-09-16T17:51:38;23.00;;;14.30;;
45318;SDS011;31057;48.498;32.260;2022-09-16T17:54:40;15.32;;;13.82;;
45318;SDS011;31057;48.498;32.260;2022-09-16T17:57:42;16.35;;;13.38;;
45318;SDS011;31057;48.498;32.260;2022-09-16T18:00:44;17.65;;;15.02;;
45318;SDS011;31057;48.498;32.260;2022-09-16T18:03:47;14.48;;;12.20;;
45318;SDS011;31057;48.498;32.260;2022-09-16T18:06:50;14.00;;;11.88;;
45318;SDS011;31057;48.498;32.260;2022-09-16T18:09:52;14.75;;;12.35;;
45318;SDS011;31057;48.498;32.260;2022-09-16T18:12:55;15.82;;;12.60;;
45318;SDS011;31057;48.498;32.260;2022-09-16T18:16:02;17.55;;;12.20;;
45318;SDS011;31057;48.498;32.260;2022-09-16T18:19:07;17.00;;;13.52;;
45318;SDS011;31057;48.498;32.260;2022-09-16T18:22:09;17.42;;;12.85;;
45318;SDS011;31057;48.498;32.260;2022-09-16T18:25:11;20.63;;;15.30;;
45318;SDS011;31057;48.498;32.260;2022-09-16T18:28:13;26.90;;;19.92;;
45318;SDS011;31057;48.498;32.260;2022-09-16T18:31:17;20.35;;;14.93;;
45318;SDS011;31057;48.498;32.260;2022-09-16T18:34:20;22.05;;;13.50;;
45318;SDS011;31057;48.498;32.260;2022-09-16T18:37:24;18.75;;;14.57;;
45318;SDS011;31057;48.498;32.260;2022-09-16T18:40:25;19.70;;;16.83;;
45318;SDS011;31057;48.498;32.260;2022-09-16T18:43:27;24.27;;;18.80;;
45318;SDS011;31057;48.498;32.260;2022-09-16T18:46:30;23.70;;;17.73;;
45318;SDS011;31057;48.498;32.260;2022-09-16T18:49:33;28.00;;;20.52;;
45318;SDS011;31057;48.498;32.260;2022-09-16T18:52:35;34.03;;;20.17;;
45318;SDS011;31057;48.498;32.260;2022-09-16T18:55:40;25.40;;;20.88;;
45318;SDS011;31057;48.498;32.260;2022-09-16T18:58:44;30.60;;;22.13;;
45318;SDS011;31057;48.498;32.260;2022-09-16T19:02:07;31.88;;;23.55;;
45318;SDS011;31057;48.498;32.260;2022-09-16T19:05:12;29.02;;;23.90;;
45318;SDS011;31057;48.498;32.260;2022-09-16T19:08:15;30.38;;;23.58;;
45318;SDS011;31057;48.498;32.260;2022-09-16T19:11:17;28.70;;;23.13;;
45318;SDS011;31057;48.498;32.260;2022-09-16T19:14:19;33.00;;;26.73;;
45318;SDS011;31057;48.498;32.260;2022-09-16T19:17:25;28.58;;;23.13;;
45318;SDS011;31057;48.498;32.260;2022-09-16T19:20:27;24.73;;;21.83;;
45318;SDS011;31057;48.498;32.260;2022-09-16T19:23:29;25.95;;;21.77;;
45318;SDS011;31057;48.498;32.260;2022-09-16T19:26:35;19.20;;;16.30;;
45318;SDS011;31057;48.498;32.260;2022-09-16T19:29:37;21.15;;;18.95;;
45318;SDS011;31057;48.498;32.260;2022-09-16T19:32:39;22.25;;;19.95;;
45318;SDS011;31057;48.498;32.260;2022-09-16T19:35:41;23.13;;;19.67;;
45318;SDS011;31057;48.498;32.260;2022-09-16T19:38:44;23.73;;;20.38;;
45318;SDS011;31057;48.498;32.260;2022-09-16T19:41:47;20.38;;;18.23;;
45318;SDS011;31057;48.498;32.260;2022-09-16T19:44:49;19.15;;;16.92;;
45318;SDS011;31057;48.498;32.260;2022-09-16T19:47:51;28.40;;;24.15;;
45318;SDS011;31057;48.498;32.260;2022-09-16T19:50:53;25.27;;;21.83;;
45318;SDS011;31057;48.498;32.260;2022-09-16T19:53:55;25.50;;;20.83;;
45318;SDS011;31057;48.498;32.260;2022-09-16T19:56:58;24.60;;;19.33;;
45318;SDS011;31057;48.498;32.260;2022-09-16T20:00:01;18.30;;;16.40;;
45318;SDS011;31057;48.498;32.260;2022-09-16T20:03:05;19.10;;;17.00;;
45318;SDS011;31057;48.498;32.260;2022-09-16T20:06:18;19.53;;;17.50;;
45318;SDS011;31057;48.498;32.260;2022-09-16T20:09:22;18.20;;;16.30;;
45318;SDS011;31057;48.498;32.260;2022-09-16T20:12:24;16.27;;;14.65;;
45318;SDS011;31057;48.498;32.260;2022-09-16T20:15:26;14.68;;;13.25;;
45318;SDS011;31057;48.498;32.260;2022-09-16T20:18:29;14.55;;;13.15;;
45318;SDS011;31057;48.498;32.260;2022-09-16T20:21:32;15.10;;;13.60;;
45318;SDS011;31057;48.498;32.260;2022-09-16T20:24:35;13.68;;;12.30;;
45318;SDS011;31057;48.498;32.260;2022-09-16T20:27:37;14.80;;;13.32;;
45318;SDS011;31057;48.498;32.260;2022-09-16T20:30:39;15.82;;;13.77;;
45318;SDS011;31057;48.498;32.260;2022-09-16T20:33:41;19.25;;;17.35;;
45318;SDS011;31057;48.498;32.260;2022-09-16T20:36:43;18.23;;;16.35;;
45318;SDS011;31057;48.498;32.260;2022-09-16T20:39:46;21.20;;;18.20;;
45318;SDS011;31057;48.498;32.260;2022-09-16T20:42:48;18.00;;;16.15;;
45318;SDS011;31057;48.498;32.260;2022-09-16T20:45:50;20.00;;;18.08;;
45318;SDS011;31057;48.498;32.260;2022-09-16T20:48:52;20.58;;;18.52;;
45318;SDS011;31057;48.498;32.260;2022-09-16T20:51:55;23.85;;;19.75;;
45318;SDS011;31057;48.498;32.260;2022-09-16T20:54:57;22.83;;;19.42;;
45318;SDS011;31057;48.498;32.260;2022-09-16T20:58:05;24.30;;;21.60;;
45318;SDS011;31057;48.498;32.260;2022-09-16T21:01:11;24.83;;;22.23;;
45318;SDS011;31057;48.498;32.260;2022-09-16T21:04:18;25.88;;;22.98;;
45318;SDS011;31057;48.498;32.260;2022-09-16T21:07:20;23.60;;;20.67;;
45318;SDS011;31057;48.498;32.260;2022-09-16T21:10:23;26.98;;;19.85;;
45318;SDS011;31057;48.498;32.260;2022-09-16T21:13:25;24.77;;;20.70;;
45318;SDS011;31057;48.498;32.260;2022-09-16T21:16:29;32.10;;;23.52;;
45318;SDS011;31057;48.498;32.260;2022-09-16T21:19:34;25.70;;;22.23;;
45318;SDS011;31057;48.498;32.260;2022-09-16T21:22:36;25.27;;;21.67;;
45318;SDS011;31057;48.498;32.260;2022-09-16T21:25:39;26.52;;;23.58;;
45318;SDS011;31057;48.498;32.260;2022-09-16T21:28:42;33.22;;;27.85;;